Time;durP1;ratioP1;P1;durP2;ratioP2;P2;SDS_P1;SDS_P2;PMS_P1;PMS_P2;Temp;Humidity;BMP_temperature;BMP_pressure;BME280_temperature;BME280_humidity;BME280_pressure;Samples;Min_cycle;Max_cycle;Signal;HPM_P1;HPM_P2
2022/11/27 00:01:38;;;;;;;12.47;5.30;;;;;;;;;;5039317;28;20219;-64
2022/11/27 00:04:06;;;;;;;10.23;4.90;;;;;;;;;;5036630;28;20219;-64
2022/11/27 00:06:33;;;;;;;10.27;4.93;;;;;;;;;;5029805;28;20212;-64
2022/11/27 00:09:03;;;;;;;6.93;4.90;;;;;;;;;;5041315;28;20689;-64
2022/11/27 00:11:31;;;;;;;8.43;4.70;;;;;;;;;;5033292;28;20247;-64
2022/11/27 00:13:58;;;;;;;9.43;4.30;;;;;;;;;;5030351;28;20743;-64
2022/11/27 00:16:26;;;;;;;6.93;4.77;;;;;;;;;;5043057;28;20211;-64
2022/11/27 00:18:53;;;;;;;6.57;4.53;;;;;;;;;;5033775;28;20227;-65
2022/11/27 00:21:22;;;;;;;8.00;4.63;;;;;;;;;;5030971;28;20196;-64
2022/11/27 00:23:50;;;;;;;6.53;4.13;;;;;;;;;;5040166;28;20668;-64
2022/11/27 00:26:21;;;;;;;6.93;4.27;;;;;;;;;;5030420;28;20200;-65
2022/11/27 00:28:49;;;;;;;4.97;3.87;;;;;;;;;;5039387;28;20204;-64
2022/11/27 00:31:16;;;;;;;4.20;3.40;;;;;;;;;;5046389;28;20228;-64
2022/11/27 00:33:44;;;;;;;6.87;3.93;;;;;;;;;;5028779;28;20200;-64
2022/11/27 00:36:15;;;;;;;8.57;4.17;;;;;;;;;;5038816;28;20217;-64
2022/11/27 00:38:42;;;;;;;7.47;4.30;;;;;;;;;;5030319;28;20204;-64
2022/11/27 00:41:11;;;;;;;7.37;4.83;;;;;;;;;;5029105;28;20204;-64
2022/11/27 00:43:39;;;;;;;6.83;4.20;;;;;;;;;;5042645;28;20223;-64
2022/11/27 00:46:06;;;;;;;8.20;5.00;;;;;;;;;;5040727;28;20200;-64
2022/11/27 00:48:33;;;;;;;7.13;4.43;;;;;;;;;;5036160;28;20215;-64
2022/11/27 00:51:01;;;;;;;5.63;4.27;;;;;;;;;;5041485;28;20234;-64
2022/11/27 00:53:28;;;;;;;10.03;4.77;;;;;;;;;;5048054;28;20203;-64
2022/11/27 00:55:55;;;;;;;5.60;4.37;;;;;;;;;;5047691;28;21005;-64
2022/11/27 00:58:22;;;;;;;5.20;4.17;;;;;;;;;;5047854;28;20235;-64
2022/11/27 01:00:56;;;;;;;10.80;5.03;;;;;;;;;;5048044;28;20199;-65
2022/11/27 01:03:23;;;;;;;23.00;6.50;;;;;;;;;;5034947;28;20200;-64
2022/11/27 01:05:50;;;;;;;24.73;9.47;;;;;;;;;;5028902;28;20212;-64
2022/11/27 01:08:18;;;;;;;18.93;6.93;;;;;;;;;;5029859;28;20337;-64
2022/11/27 01:10:51;;;;;;;20.63;7.53;;;;;;;;;;5030219;28;20839;-64
2022/11/27 01:13:18;;;;;;;14.83;5.87;;;;;;;;;;5044055;28;20211;-64
2022/11/27 01:15:45;;;;;;;8.63;5.27;;;;;;;;;;5029277;28;20212;-64
2022/11/27 01:18:14;;;;;;;10.67;3.83;;;;;;;;;;5034532;28;20219;-64
2022/11/27 01:20:41;;;;;;;5.90;3.27;;;;;;;;;;5036356;28;20557;-64
2022/11/27 01:23:08;;;;;;;11.53;3.83;;;;;;;;;;5032741;28;20205;-64
2022/11/27 01:25:35;;;;;;;6.87;3.53;;;;;;;;;;5031478;28;20670;-64
2022/11/27 01:28:02;;;;;;;4.90;3.03;;;;;;;;;;5030186;28;20219;-64
2022/11/27 01:30:29;;;;;;;3.47;3.07;;;;;;;;;;5031194;28;20220;-64
2022/11/27 01:32:56;;;;;;;4.17;2.57;;;;;;;;;;5037006;28;20204;-64
2022/11/27 01:35:25;;;;;;;6.00;2.37;;;;;;;;;;5045373;28;20208;-64
2022/11/27 01:37:52;;;;;;;6.63;3.03;;;;;;;;;;5033933;28;20212;-63
2022/11/27 01:40:19;;;;;;;4.20;2.60;;;;;;;;;;5045963;28;20196;-64
2022/11/27 01:42:46;;;;;;;3.53;3.13;;;;;;;;;;5039473;28;20913;-63
2022/11/27 01:45:15;;;;;;;3.97;3.20;;;;;;;;;;5041500;28;20200;-64
2022/11/27 01:47:46;;;;;;;3.53;2.73;;;;;;;;;;5035834;28;20212;-63
2022/11/27 01:50:16;;;;;;;2.70;2.50;;;;;;;;;;5037683;28;20219;-64
2022/11/27 01:52:47;;;;;;;3.40;3.10;;;;;;;;;;5049593;28;20215;-64
2022/11/27 01:55:17;;;;;;;7.27;3.07;;;;;;;;;;5037308;28;20724;-64
2022/11/27 01:57:47;;;;;;;2.63;2.43;;;;;;;;;;5030897;28;20200;-64
2022/11/27 02:00:15;;;;;;;6.43;2.57;;;;;;;;;;5031627;28;20215;-64
2022/11/27 02:02:42;;;;;;;4.07;2.63;;;;;;;;;;5041195;28;20333;-64
2022/11/27 02:05:10;;;;;;;3.27;2.70;;;;;;;;;;5038116;28;20211;-64
2022/11/27 02:07:38;;;;;;;2.77;2.53;;;;;;;;;;5031267;28;20223;-64
2022/11/27 02:10:07;;;;;;;4.40;3.07;;;;;;;;;;5044220;28;20628;-64
2022/11/27 02:12:37;;;;;;;2.70;2.40;;;;;;;;;;5037721;28;20227;-64
2022/11/27 02:15:08;;;;;;;2.90;2.43;;;;;;;;;;5043448;28;20196;-63
2022/11/27 02:17:39;;;;;;;5.60;2.37;;;;;;;;;;5045368;28;20245;-64
2022/11/27 02:20:16;;;;;;;3.67;2.70;;;;;;;;;;5034569;28;20219;-64
2022/11/27 02:22:49;;;;;;;10.90;2.60;;;;;;;;;;5040568;28;20207;-64
2022/11/27 02:25:25;;;;;;;3.10;2.63;;;;;;;;;;5041093;28;20207;-64
2022/11/27 02:27:58;;;;;;;2.43;2.23;;;;;;;;;;5035281;28;20204;-64
2022/11/27 02:30:26;;;;;;;5.53;2.23;;;;;;;;;;5042267;28;20215;-63
2022/11/27 02:32:57;;;;;;;6.83;2.27;;;;;;;;;;5043552;28;20204;-64
2022/11/27 02:35:29;;;;;;;7.20;2.27;;;;;;;;;;5039773;28;20197;-65
2022/11/27 02:37:58;;;;;;;10.53;2.40;;;;;;;;;;5031198;28;20208;-64
2022/11/27 02:40:29;;;;;;;2.43;2.33;;;;;;;;;;5041036;28;20297;-64
2022/11/27 02:42:57;;;;;;;4.63;2.33;;;;;;;;;;5040901;28;20213;-63
2022/11/27 02:45:26;;;;;;;7.60;2.63;;;;;;;;;;5031829;28;20697;-64
2022/11/27 02:47:56;;;;;;;4.63;3.23;;;;;;;;;;5038087;28;20206;-64
2022/11/27 02:50:25;;;;;;;5.80;2.60;;;;;;;;;;5046048;28;20211;-63
2022/11/27 02:52:55;;;;;;;2.80;2.33;;;;;;;;;;5041768;28;20575;-63
2022/11/27 02:55:23;;;;;;;6.60;2.40;;;;;;;;;;5044907;28;20215;-63
2022/11/27 02:57:55;;;;;;;4.63;2.80;;;;;;;;;;5044644;28;20227;-63
2022/11/27 03:00:23;;;;;;;2.80;2.50;;;;;;;;;;5030689;28;20561;-64
2022/11/27 03:02:51;;;;;;;6.10;2.13;;;;;;;;;;5037076;28;20741;-63
2022/11/27 03:05:21;;;;;;;3.80;2.47;;;;;;;;;;5045489;28;20209;-63
2022/11/27 03:07:50;;;;;;;5.13;2.07;;;;;;;;;;5041402;28;20682;-63
2022/11/27 03:10:19;;;;;;;5.17;2.00;;;;;;;;;;5048660;28;20210;-64
2022/11/27 03:12:46;;;;;;;2.17;2.07;;;;;;;;;;5047658;28;20206;-64
2022/11/27 03:15:13;;;;;;;6.47;2.53;;;;;;;;;;5044859;28;20207;-63
2022/11/27 03:17:50;;;;;;;5.40;2.30;;;;;;;;;;5031067;28;20215;-64
2022/11/27 03:20:19;;;;;;;2.83;2.23;;;;;;;;;;5041499;28;20203;-64
2022/11/27 03:22:48;;;;;;;3.80;2.53;;;;;;;;;;5047941;28;20207;-63
2022/11/27 03:25:15;;;;;;;2.90;2.13;;;;;;;;;;5047752;28;20674;-63
2022/11/27 03:27:45;;;;;;;4.60;2.40;;;;;;;;;;5043986;28;20238;-63
2022/11/27 03:30:12;;;;;;;1.80;1.70;;;;;;;;;;5041582;28;20210;-64
2022/11/27 03:32:40;;;;;;;4.73;2.37;;;;;;;;;;5045091;28;20215;-63
2022/11/27 03:35:09;;;;;;;13.33;2.37;;;;;;;;;;5030347;28;20212;-63
2022/11/27 03:37:36;;;;;;;4.33;2.63;;;;;;;;;;5041045;28;20223;-63
2022/11/27 03:40:05;;;;;;;2.57;2.17;;;;;;;;;;5031768;28;20221;-63
2022/11/27 03:42:35;;;;;;;3.83;2.50;;;;;;;;;;5035749;28;20207;-63
2022/11/27 03:45:08;;;;;;;3.70;2.37;;;;;;;;;;5042467;28;20207;-63
2022/11/27 03:47:46;;;;;;;2.70;2.50;;;;;;;;;;5034952;28;20208;-63
2022/11/27 03:50:19;;;;;;;2.23;2.13;;;;;;;;;;5035024;28;20213;-63
2022/11/27 03:52:52;;;;;;;6.10;2.63;;;;;;;;;;5045022;28;20231;-63
2022/11/27 03:55:23;;;;;;;3.13;2.10;;;;;;;;;;5047044;28;20645;-63
2022/11/27 03:57:58;;;;;;;5.67;2.93;;;;;;;;;;5039199;28;20215;-63
2022/11/27 04:00:25;;;;;;;2.23;1.90;;;;;;;;;;5040758;28;20200;-63
2022/11/27 04:02:53;;;;;;;2.90;2.30;;;;;;;;;;5039390;28;20548;-63
2022/11/27 04:05:20;;;;;;;4.33;2.10;;;;;;;;;;5035654;28;20204;-63
2022/11/27 04:07:48;;;;;;;4.00;2.50;;;;;;;;;;5042188;28;20207;-63
2022/11/27 04:10:15;;;;;;;4.37;2.63;;;;;;;;;;5033249;28;20210;-62
2022/11/27 04:12:43;;;;;;;5.00;2.50;;;;;;;;;;5036380;28;20233;-63
2022/11/27 04:15:11;;;;;;;3.40;2.90;;;;;;;;;;5028623;28;20663;-65
2022/11/27 04:17:38;;;;;;;1.67;1.57;;;;;;;;;;5030143;28;20315;-64
2022/11/27 04:20:06;;;;;;;7.70;2.27;;;;;;;;;;5043150;28;20208;-63
2022/11/27 04:22:40;;;;;;;3.03;2.07;;;;;;;;;;5030367;28;20193;-63
2022/11/27 04:25:07;;;;;;;4.17;2.40;;;;;;;;;;5034801;28;20205;-63
2022/11/27 04:27:34;;;;;;;3.00;2.47;;;;;;;;;;5037123;28;20213;-63
2022/11/27 04:30:03;;;;;;;7.93;2.50;;;;;;;;;;5042232;28;20215;-63
2022/11/27 04:32:30;;;;;;;11.10;2.80;;;;;;;;;;5034854;28;20231;-63
2022/11/27 04:34:57;;;;;;;6.47;2.10;;;;;;;;;;5030520;28;20579;-64
2022/11/27 04:37:24;;;;;;;5.57;2.63;;;;;;;;;;5041327;28;20208;-63
2022/11/27 04:39:51;;;;;;;4.67;2.70;;;;;;;;;;5044332;28;20232;-63
2022/11/27 04:42:18;;;;;;;5.73;2.10;;;;;;;;;;5029760;28;20245;-63
2022/11/27 04:44:45;;;;;;;4.47;2.60;;;;;;;;;;5031904;28;20208;-63
2022/11/27 04:47:13;;;;;;;20.20;2.77;;;;;;;;;;5037855;28;20343;-63
2022/11/27 04:49:41;;;;;;;6.63;2.03;;;;;;;;;;5029164;28;20212;-63
2022/11/27 04:52:09;;;;;;;5.37;2.00;;;;;;;;;;5040165;28;20216;-63
2022/11/27 04:54:36;;;;;;;6.23;2.23;;;;;;;;;;5030154;28;20278;-63
2022/11/27 04:57:03;;;;;;;3.07;2.43;;;;;;;;;;5038345;28;20200;-63
2022/11/27 04:59:31;;;;;;;2.00;1.90;;;;;;;;;;5046991;28;20341;-64
2022/11/27 05:01:58;;;;;;;6.77;2.70;;;;;;;;;;5035362;28;20208;-64
2022/11/27 05:04:26;;;;;;;4.90;2.10;;;;;;;;;;5032254;28;20204;-64
2022/11/27 05:06:53;;;;;;;7.60;2.30;;;;;;;;;;5043858;28;20200;-64
2022/11/27 05:09:20;;;;;;;3.03;2.33;;;;;;;;;;5033483;28;20213;-63
2022/11/27 05:11:47;;;;;;;4.60;2.77;;;;;;;;;;5043473;28;20736;-63
2022/11/27 05:14:15;;;;;;;2.53;2.20;;;;;;;;;;5048211;28;20203;-63
2022/11/27 05:16:43;;;;;;;2.27;2.03;;;;;;;;;;5047388;28;20203;-64
2022/11/27 05:19:10;;;;;;;2.20;2.00;;;;;;;;;;5042244;28;20211;-63
2022/11/27 05:21:39;;;;;;;4.30;2.10;;;;;;;;;;5040838;28;20676;-64
2022/11/27 05:24:06;;;;;;;4.17;2.43;;;;;;;;;;5041000;28;20208;-63
2022/11/27 05:26:33;;;;;;;3.03;2.47;;;;;;;;;;5035835;28;20219;-63
2022/11/27 05:29:01;;;;;;;2.73;2.07;;;;;;;;;;5045763;28;20199;-63
2022/11/27 05:31:28;;;;;;;2.47;2.20;;;;;;;;;;5042622;28;20239;-63
2022/11/27 05:33:55;;;;;;;6.03;2.60;;;;;;;;;;5034075;28;20207;-63
2022/11/27 05:36:22;;;;;;;6.17;2.53;;;;;;;;;;5032852;28;20286;-63
2022/11/27 05:38:50;;;;;;;5.03;2.93;;;;;;;;;;5040553;28;20210;-63
2022/11/27 05:41:18;;;;;;;6.50;3.03;;;;;;;;;;5037293;28;20209;-64
2022/11/27 05:43:45;;;;;;;3.00;2.13;;;;;;;;;;5036968;28;20219;-64
2022/11/27 05:46:14;;;;;;;2.93;2.60;;;;;;;;;;5044681;28;20199;-63
2022/11/27 05:48:41;;;;;;;4.40;2.30;;;;;;;;;;5042107;28;20214;-64
2022/11/27 05:51:08;;;;;;;3.83;3.37;;;;;;;;;;5034617;28;20212;-63
2022/11/27 05:53:35;;;;;;;9.93;2.53;;;;;;;;;;5043844;28;20207;-63
2022/11/27 05:56:05;;;;;;;4.17;2.70;;;;;;;;;;5041082;28;20220;-63
2022/11/27 05:58:32;;;;;;;4.53;2.40;;;;;;;;;;5044839;28;20239;-63
2022/11/27 06:00:59;;;;;;;7.47;3.20;;;;;;;;;;5030966;28;20314;-63
2022/11/27 06:03:27;;;;;;;5.37;2.73;;;;;;;;;;5042418;28;20203;-63
2022/11/27 06:05:54;;;;;;;3.27;2.33;;;;;;;;;;5042372;28;20214;-63
2022/11/27 06:08:21;;;;;;;4.20;2.37;;;;;;;;;;5030199;28;20213;-63
2022/11/27 06:10:48;;;;;;;2.20;1.97;;;;;;;;;;5031974;28;20208;-62
2022/11/27 06:13:17;;;;;;;5.07;2.00;;;;;;;;;;5036237;28;20220;-64
2022/11/27 06:15:44;;;;;;;6.77;2.70;;;;;;;;;;5034854;28;20196;-63
2022/11/27 06:18:12;;;;;;;3.23;2.23;;;;;;;;;;5033048;28;20219;-64
2022/11/27 06:20:39;;;;;;;2.90;2.33;;;;;;;;;;5045126;28;20258;-63
2022/11/27 06:23:06;;;;;;;3.30;2.63;;;;;;;;;;5030327;28;20204;-63
2022/11/27 06:25:33;;;;;;;2.47;2.23;;;;;;;;;;5031584;28;20222;-63
2022/11/27 06:28:00;;;;;;;8.27;2.20;;;;;;;;;;5041593;28;20208;-64
2022/11/27 06:30:28;;;;;;;4.50;2.93;;;;;;;;;;5043046;28;20203;-64
2022/11/27 06:32:56;;;;;;;2.00;1.90;;;;;;;;;;5046533;28;20231;-63
2022/11/27 06:35:23;;;;;;;8.47;3.37;;;;;;;;;;5039189;28;20315;-63
2022/11/27 06:37:50;;;;;;;2.80;2.47;;;;;;;;;;5029418;28;20215;-63
2022/11/27 06:40:17;;;;;;;5.00;1.93;;;;;;;;;;5041175;28;20577;-63
2022/11/27 06:42:44;;;;;;;4.37;2.00;;;;;;;;;;5035133;28;20218;-63
2022/11/27 06:45:12;;;;;;;2.57;2.37;;;;;;;;;;5047836;28;20204;-63
2022/11/27 06:47:41;;;;;;;2.23;1.73;;;;;;;;;;5044330;28;20239;-63
2022/11/27 06:50:08;;;;;;;3.13;2.37;;;;;;;;;;5029175;28;20647;-63
2022/11/27 06:52:35;;;;;;;2.63;2.43;;;;;;;;;;5031338;28;20256;-63
2022/11/27 06:55:02;;;;;;;3.60;2.63;;;;;;;;;;5045956;28;20238;-63
2022/11/27 06:57:29;;;;;;;6.93;3.53;;;;;;;;;;5045977;28;20215;-63
2022/11/27 06:59:57;;;;;;;4.40;1.97;;;;;;;;;;5004112;28;1068686;-63
2022/11/27 07:02:24;;;;;;;4.63;2.63;;;;;;;;;;5038496;28;20585;-64
2022/11/27 07:04:52;;;;;;;3.23;1.90;;;;;;;;;;5043562;28;20207;-62
2022/11/27 07:07:19;;;;;;;5.73;2.03;;;;;;;;;;5047381;28;20837;-63
2022/11/27 07:09:46;;;;;;;2.13;2.00;;;;;;;;;;5049922;28;20693;-63
2022/11/27 07:12:13;;;;;;;2.90;2.33;;;;;;;;;;5033852;28;20224;-63
2022/11/27 07:14:40;;;;;;;5.33;2.73;;;;;;;;;;5032500;28;20224;-63
2022/11/27 07:17:07;;;;;;;10.43;2.57;;;;;;;;;;5031685;28;20235;-63
2022/11/27 07:19:34;;;;;;;7.07;3.53;;;;;;;;;;5037419;28;20214;-64
2022/11/27 07:22:03;;;;;;;4.93;3.03;;;;;;;;;;5035796;28;20661;-64
2022/11/27 07:24:30;;;;;;;8.23;3.63;;;;;;;;;;5049338;28;20211;-64
2022/11/27 07:26:57;;;;;;;4.73;3.53;;;;;;;;;;5038949;28;20720;-64
2022/11/27 07:29:24;;;;;;;7.53;4.20;;;;;;;;;;5043855;28;20214;-64
2022/11/27 07:31:51;;;;;;;9.27;3.57;;;;;;;;;;5040499;28;20209;-64
2022/11/27 07:34:18;;;;;;;7.00;4.50;;;;;;;;;;5027932;28;20201;-64
2022/11/27 07:36:45;;;;;;;7.33;5.07;;;;;;;;;;5029791;28;20353;-64
2022/11/27 07:39:14;;;;;;;9.13;6.13;;;;;;;;;;5034576;28;20605;-64
2022/11/27 07:41:41;;;;;;;10.37;4.73;;;;;;;;;;5044406;28;20218;-64
2022/11/27 07:44:09;;;;;;;6.77;3.23;;;;;;;;;;5033182;28;20215;-64
2022/11/27 07:46:37;;;;;;;7.47;3.30;;;;;;;;;;5037852;28;20208;-64
2022/11/27 07:49:04;;;;;;;6.90;4.60;;;;;;;;;;5032723;28;20238;-64
2022/11/27 07:51:31;;;;;;;11.27;4.23;;;;;;;;;;5029395;28;20212;-64
2022/11/27 07:53:59;;;;;;;5.43;3.67;;;;;;;;;;5041359;28;20223;-64
2022/11/27 07:56:29;;;;;;;6.07;4.10;;;;;;;;;;5039743;28;20292;-63
2022/11/27 07:58:57;;;;;;;7.67;3.20;;;;;;;;;;5036325;28;20270;-63
2022/11/27 08:01:24;;;;;;;2.60;2.33;;;;;;;;;;5031277;28;20274;-64
2022/11/27 08:03:51;;;;;;;3.77;3.20;;;;;;;;;;5049104;28;20218;-61
2022/11/27 08:06:19;;;;;;;7.20;4.30;;;;;;;;;;5040495;28;20199;-62
2022/11/27 08:08:48;;;;;;;3.53;3.00;;;;;;;;;;5043846;28;20212;-62
2022/11/27 08:11:16;;;;;;;10.80;4.53;;;;;;;;;;5041876;28;20749;-62
2022/11/27 08:13:44;;;;;;;4.90;2.90;;;;;;;;;;5040393;28;20242;-63
2022/11/27 08:16:11;;;;;;;6.17;3.80;;;;;;;;;;5030034;28;20208;-63
2022/11/27 08:18:38;;;;;;;3.90;3.47;;;;;;;;;;5039683;28;20351;-61
2022/11/27 08:21:06;;;;;;;6.90;3.50;;;;;;;;;;5029962;28;20223;-61
2022/11/27 08:23:33;;;;;;;3.27;2.83;;;;;;;;;;5029999;28;20224;-62
2022/11/27 08:26:00;;;;;;;9.07;4.20;;;;;;;;;;5033005;28;20209;-61
2022/11/27 08:28:27;;;;;;;7.23;3.30;;;;;;;;;;5041668;28;20208;-61
2022/11/27 08:30:59;;;;;;;8.07;4.37;;;;;;;;;;5046374;28;20214;-63
2022/11/27 08:33:26;;;;;;;3.63;3.30;;;;;;;;;;5034492;28;20740;-62
2022/11/27 08:35:53;;;;;;;7.03;2.97;;;;;;;;;;5048090;28;20220;-64
2022/11/27 08:38:20;;;;;;;7.47;4.07;;;;;;;;;;5043149;28;20211;-63
2022/11/27 08:40:53;;;;;;;6.67;3.17;;;;;;;;;;5046453;28;20329;-62
2022/11/27 08:43:21;;;;;;;5.57;3.23;;;;;;;;;;5034616;28;20200;-68
2022/11/27 08:45:48;;;;;;;4.43;3.83;;;;;;;;;;5034530;28;20207;-62
2022/11/27 08:48:16;;;;;;;3.57;2.90;;;;;;;;;;5038176;28;20238;-64
2022/11/27 08:50:46;;;;;;;6.07;3.90;;;;;;;;;;5042525;28;20211;-62
2022/11/27 08:53:13;;;;;;;5.53;3.60;;;;;;;;;;5039234;28;20230;-63
2022/11/27 08:55:40;;;;;;;6.33;3.63;;;;;;;;;;5041948;28;20228;-67
2022/11/27 08:58:07;;;;;;;5.50;3.30;;;;;;;;;;5029730;28;20331;-66
2022/11/27 09:00:35;;;;;;;4.03;2.57;;;;;;;;;;5030174;28;20246;-64
2022/11/27 09:03:02;;;;;;;4.93;3.10;;;;;;;;;;5028622;28;20204;-62
2022/11/27 09:05:31;;;;;;;4.07;3.33;;;;;;;;;;5043967;28;20199;-63
2022/11/27 09:08:01;;;;;;;6.77;4.40;;;;;;;;;;5045347;28;20196;-64
2022/11/27 09:10:28;;;;;;;7.23;3.90;;;;;;;;;;5028115;28;20205;-63
2022/11/27 09:12:58;;;;;;;10.60;3.27;;;;;;;;;;5028136;28;20247;-63
2022/11/27 09:15:25;;;;;;;10.30;3.80;;;;;;;;;;5028301;28;20265;-63
2022/11/27 09:17:52;;;;;;;8.27;4.30;;;;;;;;;;5031750;28;20208;-68
2022/11/27 09:20:19;;;;;;;6.60;3.70;;;;;;;;;;5030082;28;20205;-60
2022/11/27 09:22:47;;;;;;;10.57;4.63;;;;;;;;;;5028504;28;20204;-61
2022/11/27 09:25:14;;;;;;;7.67;3.77;;;;;;;;;;5028338;28;20342;-67
2022/11/27 09:27:42;;;;;;;5.77;3.50;;;;;;;;;;5028787;28;20205;-63
2022/11/27 09:30:10;;;;;;;3.43;3.10;;;;;;;;;;5046204;28;20207;-64
2022/11/27 09:32:37;;;;;;;6.10;3.27;;;;;;;;;;5047773;28;20231;-63
2022/11/27 09:35:04;;;;;;;4.53;3.33;;;;;;;;;;5048029;28;20242;-63
2022/11/27 09:37:31;;;;;;;6.83;3.53;;;;;;;;;;5047950;28;20207;-63
2022/11/27 09:39:59;;;;;;;5.83;3.10;;;;;;;;;;5047371;28;20203;-64
2022/11/27 09:42:35;;;;;;;7.47;3.83;;;;;;;;;;5047127;28;20691;-63
2022/11/27 09:45:03;;;;;;;4.47;3.40;;;;;;;;;;5028428;28;20208;-63
2022/11/27 09:47:34;;;;;;;6.53;3.67;;;;;;;;;;5028909;28;20230;-63
2022/11/27 09:50:03;;;;;;;5.13;3.37;;;;;;;;;;5037840;28;20224;-63
2022/11/27 09:52:35;;;;;;;5.23;3.13;;;;;;;;;;5042207;28;20211;-63
2022/11/27 09:55:10;;;;;;;2.77;2.03;;;;;;;;;;5045169;28;20231;-63
2022/11/27 09:57:39;;;;;;;5.80;3.27;;;;;;;;;;5049243;28;20204;-62
2022/11/27 10:00:07;;;;;;;0.73;0.73;;;;;;;;;;5035585;28;20552;-63
2022/11/27 10:02:35;;;;;;;4.87;3.23;;;;;;;;;;5036809;28;20208;-62
2022/11/27 10:05:05;;;;;;;3.27;2.60;;;;;;;;;;5044600;28;20200;-63
2022/11/27 10:07:37;;;;;;;3.77;2.47;;;;;;;;;;5041372;28;20219;-62
2022/11/27 10:10:11;;;;;;;5.57;4.10;;;;;;;;;;5036270;28;20212;-63
2022/11/27 10:12:43;;;;;;;7.20;3.53;;;;;;;;;;5040246;28;20215;-63
2022/11/27 10:15:14;;;;;;;5.57;2.33;;;;;;;;;;5031029;28;20212;-63
2022/11/27 10:17:43;;;;;;;5.20;3.10;;;;;;;;;;5032667;28;20220;-63
2022/11/27 10:20:16;;;;;;;4.60;4.03;;;;;;;;;;5031120;28;20307;-63
2022/11/27 10:22:47;;;;;;;5.07;3.67;;;;;;;;;;5030696;28;20209;-62
2022/11/27 10:25:18;;;;;;;7.13;3.47;;;;;;;;;;5031232;28;20268;-63
2022/11/27 10:27:50;;;;;;;7.00;3.77;;;;;;;;;;5033345;28;20210;-63
2022/11/27 10:30:18;;;;;;;6.47;3.50;;;;;;;;;;5050424;28;20207;-65
2022/11/27 10:32:46;;;;;;;5.77;3.83;;;;;;;;;;5050239;28;20295;-62
2022/11/27 10:35:14;;;;;;;6.40;3.63;;;;;;;;;;5050069;28;20211;-62
2022/11/27 10:37:43;;;;;;;7.60;3.87;;;;;;;;;;5048665;28;20207;-64
2022/11/27 10:40:19;;;;;;;7.20;4.00;;;;;;;;;;5030297;28;20691;-63
2022/11/27 10:42:49;;;;;;;5.13;4.50;;;;;;;;;;5030303;28;20223;-63
2022/11/27 10:45:19;;;;;;;9.47;4.23;;;;;;;;;;5042576;28;20215;-64
2022/11/27 10:47:47;;;;;;;6.87;3.83;;;;;;;;;;5044338;28;20410;-64
2022/11/27 10:50:14;;;;;;;10.63;4.20;;;;;;;;;;5029759;28;20694;-64
2022/11/27 10:52:47;;;;;;;6.93;4.17;;;;;;;;;;5025985;28;20223;-62
2022/11/27 10:55:19;;;;;;;7.47;4.20;;;;;;;;;;5035091;28;20219;-61
2022/11/27 10:57:58;;;;;;;5.80;4.27;;;;;;;;;;5039043;28;20225;-61
2022/11/27 11:00:26;;;;;;;7.50;4.87;;;;;;;;;;5032216;28;20863;-62
2022/11/27 11:03:00;;;;;;;6.23;4.17;;;;;;;;;;5029339;28;20220;-62
2022/11/27 11:05:27;;;;;;;7.20;4.23;;;;;;;;;;5031225;28;20208;-63
2022/11/27 11:07:59;;;;;;;6.70;4.10;;;;;;;;;;5031033;28;20210;-61
2022/11/27 11:10:30;;;;;;;9.80;4.93;;;;;;;;;;5041020;28;20209;-62
2022/11/27 11:13:18;;;;;;;9.10;5.47;;;;;;;;;;5029697;28;20215;-62
2022/11/27 11:15:48;;;;;;;5.77;4.17;;;;;;;;;;5029718;28;20215;-62
2022/11/27 11:18:17;;;;;;;5.97;3.90;;;;;;;;;;5029869;28;20218;-62
2022/11/27 11:20:45;;;;;;;4.37;3.97;;;;;;;;;;5029889;28;20208;-62
2022/11/27 11:23:19;;;;;;;7.40;3.80;;;;;;;;;;5029678;28;20209;-62
2022/11/27 11:25:49;;;;;;;8.53;4.03;;;;;;;;;;5029906;28;20219;-62
2022/11/27 11:28:19;;;;;;;5.90;4.47;;;;;;;;;;5029832;28;20208;-63
2022/11/27 11:30:53;;;;;;;5.20;3.43;;;;;;;;;;5029714;28;20595;-62
2022/11/27 11:33:20;;;;;;;8.63;4.27;;;;;;;;;;5029859;28;20595;-62
2022/11/27 11:35:52;;;;;;;6.60;4.53;;;;;;;;;;5030880;28;20208;-62
2022/11/27 11:38:22;;;;;;;6.13;4.43;;;;;;;;;;5032180;28;20211;-62
2022/11/27 11:40:57;;;;;;;7.90;4.63;;;;;;;;;;5048003;28;20295;-62
2022/11/27 11:43:26;;;;;;;10.37;5.00;;;;;;;;;;5039330;28;20282;-63
2022/11/27 11:45:55;;;;;;;8.63;5.13;;;;;;;;;;5030255;28;20208;-62
2022/11/27 11:48:23;;;;;;;8.07;4.73;;;;;;;;;;5038356;28;20215;-63
2022/11/27 11:50:54;;;;;;;8.10;4.47;;;;;;;;;;5029423;28;20219;-63
2022/11/27 11:53:27;;;;;;;11.80;4.73;;;;;;;;;;5030296;28;20235;-63
2022/11/27 11:56:00;;;;;;;8.90;4.20;;;;;;;;;;5030254;28;20239;-63
2022/11/27 11:58:35;;;;;;;12.03;4.70;;;;;;;;;;5029265;28;20246;-62
2022/11/27 12:01:11;;;;;;;10.20;4.37;;;;;;;;;;5029367;28;20670;-63
2022/11/27 12:03:44;;;;;;;5.73;4.07;;;;;;;;;;5046762;28;20203;-63
2022/11/27 12:06:17;;;;;;;6.70;4.30;;;;;;;;;;5031861;28;20200;-63
2022/11/27 12:08:51;;;;;;;9.03;5.13;;;;;;;;;;5044526;28;20227;-63
2022/11/27 12:11:19;;;;;;;6.17;4.40;;;;;;;;;;5046261;28;20586;-63
2022/11/27 12:13:58;;;;;;;8.47;4.90;;;;;;;;;;5032878;28;20228;-63
2022/11/27 12:16:29;;;;;;;10.20;4.63;;;;;;;;;;5027587;28;20215;-64
2022/11/27 12:19:04;;;;;;;6.23;4.80;;;;;;;;;;5039615;28;20682;-62
2022/11/27 12:21:39;;;;;;;8.27;4.67;;;;;;;;;;5031238;28;20204;-66
2022/11/27 12:24:13;;;;;;;6.60;4.90;;;;;;;;;;5044335;28;20196;-65
2022/11/27 12:26:48;;;;;;;9.23;5.17;;;;;;;;;;5028655;28;20605;-65
2022/11/27 12:29:23;;;;;;;8.47;5.00;;;;;;;;;;5029127;28;20207;-63
2022/11/27 12:32:00;;;;;;;5.73;4.20;;;;;;;;;;5042075;28;20214;-61
2022/11/27 12:34:34;;;;;;;5.73;3.90;;;;;;;;;;5038587;28;20219;-63
2022/11/27 12:37:10;;;;;;;3.77;3.47;;;;;;;;;;5029009;28;20208;-63
2022/11/27 12:39:42;;;;;;;8.37;4.40;;;;;;;;;;5039250;28;20250;-61
2022/11/27 12:42:15;;;;;;;5.63;3.70;;;;;;;;;;5028295;28;20585;-62
2022/11/27 12:44:48;;;;;;;6.03;4.33;;;;;;;;;;5039200;28;20550;-60
2022/11/27 12:47:18;;;;;;;6.97;3.83;;;;;;;;;;5032867;28;20234;-63
2022/11/27 12:49:47;;;;;;;7.17;4.27;;;;;;;;;;5029236;28;20208;-63
2022/11/27 12:52:16;;;;;;;8.23;4.70;;;;;;;;;;5036733;28;20978;-64
2022/11/27 12:54:45;;;;;;;5.53;4.30;;;;;;;;;;5029832;28;20651;-64
2022/11/27 12:57:15;;;;;;;6.43;4.23;;;;;;;;;;5032507;28;20204;-64
2022/11/27 12:59:44;;;;;;;5.80;4.53;;;;;;;;;;5028339;28;20240;-64
2022/11/27 13:02:23;;;;;;;7.37;4.23;;;;;;;;;;5044097;28;20211;-64
2022/11/27 13:04:52;;;;;;;5.07;3.73;;;;;;;;;;5027938;28;20630;-64
2022/11/27 13:07:21;;;;;;;6.17;3.80;;;;;;;;;;5031399;28;20307;-63
2022/11/27 13:09:51;;;;;;;4.90;3.13;;;;;;;;;;5033917;28;20215;-67
2022/11/27 13:12:24;;;;;;;3.97;3.37;;;;;;;;;;5035335;28;20203;-62
2022/11/27 13:14:55;;;;;;;4.63;3.73;;;;;;;;;;5047717;28;20595;-64
2022/11/27 13:17:26;;;;;;;7.10;4.07;;;;;;;;;;5033997;28;20679;-64
2022/11/27 13:19:53;;;;;;;5.60;3.97;;;;;;;;;;5029739;28;20215;-65
2022/11/27 13:22:26;;;;;;;7.10;4.50;;;;;;;;;;5038605;28;20595;-64
2022/11/27 13:24:53;;;;;;;6.70;4.53;;;;;;;;;;5038054;28;20503;-65
2022/11/27 13:27:22;;;;;;;6.17;4.00;;;;;;;;;;5034784;28;20203;-65
2022/11/27 13:29:51;;;;;;;5.07;4.47;;;;;;;;;;5032180;28;20216;-66
2022/11/27 13:32:21;;;;;;;6.50;4.67;;;;;;;;;;5031669;28;20667;-65
2022/11/27 13:34:51;;;;;;;10.80;4.47;;;;;;;;;;5045009;28;20220;-65
2022/11/27 13:37:26;;;;;;;7.83;4.40;;;;;;;;;;5052116;28;20212;-65
2022/11/27 13:39:59;;;;;;;6.20;4.87;;;;;;;;;;5035004;28;20239;-65
2022/11/27 13:42:27;;;;;;;4.20;3.80;;;;;;;;;;5048041;28;20200;-66
2022/11/27 13:44:56;;;;;;;6.27;4.43;;;;;;;;;;5050527;28;20697;-65
2022/11/27 13:47:24;;;;;;;8.50;4.83;;;;;;;;;;5035656;28;20948;-63
2022/11/27 13:50:01;;;;;;;8.70;4.60;;;;;;;;;;5035391;28;20207;-65
2022/11/27 13:52:28;;;;;;;8.17;5.17;;;;;;;;;;5035040;28;20605;-65
2022/11/27 13:54:56;;;;;;;10.47;4.50;;;;;;;;;;5042071;28;20711;-65
2022/11/27 13:57:23;;;;;;;9.53;5.73;;;;;;;;;;5042308;28;20208;-65
2022/11/27 13:59:58;;;;;;;7.03;5.03;;;;;;;;;;5048565;28;20227;-65
2022/11/27 14:02:25;;;;;;;12.57;6.77;;;;;;;;;;5041215;28;20222;-66
2022/11/27 14:04:53;;;;;;;8.60;5.47;;;;;;;;;;5039406;28;20536;-65
2022/11/27 14:07:21;;;;;;;11.67;5.37;;;;;;;;;;5050433;28;20204;-68
2022/11/27 14:09:50;;;;;;;8.90;4.93;;;;;;;;;;5051079;28;20210;-66
2022/11/27 14:12:19;;;;;;;9.37;5.60;;;;;;;;;;5045912;28;20210;-66
2022/11/27 14:14:59;;;;;;;8.30;5.67;;;;;;;;;;5030732;28;20232;-66
2022/11/27 14:17:27;;;;;;;7.83;4.70;;;;;;;;;;5031979;28;20216;-66
2022/11/27 14:20:06;;;;;;;7.53;4.70;;;;;;;;;;5043200;28;20208;-66
2022/11/27 14:22:44;;;;;;;7.57;4.43;;;;;;;;;;5031415;28;20216;-65
2022/11/27 14:25:18;;;;;;;11.03;5.03;;;;;;;;;;5029018;28;20207;-65
2022/11/27 14:27:45;;;;;;;9.23;5.00;;;;;;;;;;5031143;28;20242;-65
2022/11/27 14:30:21;;;;;;;7.60;4.60;;;;;;;;;;5030607;28;20212;-66
2022/11/27 14:32:48;;;;;;;4.50;4.10;;;;;;;;;;5031485;28;20266;-66
2022/11/27 14:35:23;;;;;;;7.40;4.47;;;;;;;;;;5031445;28;20245;-64
2022/11/27 14:37:51;;;;;;;9.20;4.23;;;;;;;;;;5031900;28;20206;-65
2022/11/27 14:40:21;;;;;;;6.00;4.00;;;;;;;;;;5030265;28;20422;-66
2022/11/27 14:42:48;;;;;;;12.77;4.93;;;;;;;;;;5033892;28;20213;-66
2022/11/27 14:45:16;;;;;;;8.77;5.07;;;;;;;;;;5029133;28;20212;-65
2022/11/27 14:47:47;;;;;;;8.33;5.13;;;;;;;;;;5031777;28;20212;-66
2022/11/27 14:50:15;;;;;;;9.73;4.93;;;;;;;;;;5031962;28;20307;-70
2022/11/27 14:52:42;;;;;;;8.17;4.93;;;;;;;;;;5031384;28;20805;-72